aviador You're here:

KOVE Decoded Metar

OROVILLE in CA, USA
Report Time2017-05-28 05:53:00
UTC Time2017-05-28 06:46:06
Flight Rules vfr VFR
Wind120° at 04 kt
W.Decomp.*RWY 13: 3.6 kt HW 1.8 kt LCW
RWY 02: 0.4 kt HW 4.0 kt RCW
W.Rank120° ranks 11
Current wind is below 120° avg. (5.6)
Visibility9999 m
Phenomena:N/A
Clouds:N/A
Expected CloudBase > 3,600 ft AGL from Temp-Dew spread
CeilingNone
Temp21°C (ISA +6)
Dew Point12°C (57% RH)
AAT20.2°C
QNH1017 hPa
Density Alt988 ft
Elevation190 ft
Report Wrong Elevation
Raw Report
KOVE 280553Z AUTO 12004KT 10SM CLR 21/12 A3003 RMK AO2 SLP169
T02110117 10278 20211 53012=

Extra information for KOVE:More info

Metar Taf Metar & Taf Last 4 Metars F.Rules Stats Wind Profile Meteogram Temp Stats Airport Information Weather charts Add Link Nearby VenuesMetar ALERT Operation Metar Decoded Social comments

AIRNAV info for KOVE